Portada
METAR-TAF:

METAR-TAF

Aeroports :

Al-Kuwait, Kuwait

latitud: 29-13N, longitud: 047-59E, altitud: 55 m

Observació

L'informe es va fer fa 30 minuts, a les 04:00 UTC
Vent calma
Temperatura 28°C
Humitat 42%
Pressió 1007 hPa
Visibilitat: 8000 m

METAR: OKBK 170400Z 00000KT 8000 NSC 28/14 Q1007 NOSIG

Hora: 07:30 (04:30 UTC)

Pronòstic

L'informe es va fer fa 5 hores i 45 minuts, a les 22:45 UTC
Pronòstic vàlid del 17 a les 00 UTC al 18 a les 06 UTC
Vent 3 kt amb direcció variable
Visibilitat: 7000 m

TAF: OKBK 162245Z 1700/1806 VRB03KT 7000 NSC

Observacions i pronòstics meteorològics de més de 4000 aeroports (METAR i TAF).

Les estacions disponibles són els punts grocs i vermells al mapa.

Posi el ratolí al punt desitjat per veure el nom de l'estació.

Feu clic per veure les observacions i els pronòstics meteorològics.

Per canviar el mapa: feu clic els botons verds amb una creu de color negre per apropar; al botó verd amb un guió per allunyar la imatge; o en les fletxes verdes per a mapes adjacents.


METAR-TAF: